Solitude, Utah
Current Conditions -  °F | °C
As of 5:53 AM on Thursday 27 Nov 2014 (Local Time) from KSLC Reporting Station
Broken Clouds Broken Clouds  
Wind Chill: 39°   Ceiling: 13000
Heat Index: 46°   Visibility: 10mi
Dew Point: 26°   Wind: 16mph
Humidity: 46%   Direction: 140°SE
Pressure: 30.28"   Gusts: NA
Location:  40.6239°N, 111.817°W
Report Text: KSLC 271253Z 14014KT 10SM BKN130 08/M03 A3028 RMK AO2 SLP240 T00781033
Loading
Personal Weather Stations






























Interactive Weather Map New forecast layout! Learn more

10-Day Weather Forecast

Advertisements
Track Severe Weather on mobile